CheckWX is a tool to help pilots better visualize weather data.  It is not intended as a substitute for an official pre-flight weather briefing.

06:32:07 UTC

KCSG METAR
Columbus Airport
Columbus, Georgia, USA
Current

41 mins ago

KCSG 230551Z AUTO 00000KT 10SM CLR 16/12 A3013 RMK AO2 SLP201 T01610122 10267 20156 55004
Observed
Apr-23 @ 05:51 UTC
Visibility
10 SM
Flight Rules
VFR
Cloud Levels
  • Clear skies
Temperature
16°C / 61°F
Dewpoint
12°C / 54°F
Humidity
77%
Altimeter
30.13" Hg
Pressure
1020.32 hPa
Previous

2 hours ago

KCSG 230451Z AUTO 00000KT 10SM CLR 16/13 A3013 RMK AO2 SLP200 T01610128 402830083
Observed
Apr-23 @ 04:51 UTC
Visibility
10 SM
Flight Rules
VFR
Cloud Levels
  • Clear skies
Temperature
16°C / 61°F
Dewpoint
13°C / 55°F
Humidity
83%
Altimeter
30.13" Hg
Pressure
1020.32 hPa
Previous

3 hours ago

KCSG 230351Z AUTO 00000KT 10SM CLR 18/12 A3014 RMK AO2 SLP201 T01830122
Observed
Apr-23 @ 03:51 UTC
Visibility
10 SM
Flight Rules
VFR
Cloud Levels
  • Clear skies
Temperature
18°C / 64°F
Dewpoint
12°C / 54°F
Humidity
68%
Altimeter
30.14" Hg
Pressure
1020.62 hPa